sensor_id;sensor_type;location;lat;lon;timestamp;temperature;humidity
17859;DHT22;35426;30.698;104.050;2022-12-18T00:01:58;6.60;99.90
17859;DHT22;35426;30.698;104.050;2022-12-18T00:04:35;6.70;99.90
17859;DHT22;35426;30.698;104.050;2022-12-18T00:07:08;6.50;99.90
17859;DHT22;35426;30.698;104.050;2022-12-18T00:09:42;6.60;99.90
17859;DHT22;35426;30.698;104.050;2022-12-18T00:12:16;6.60;99.90
17859;DHT22;35426;30.698;104.050;2022-12-18T00:14:50;6.60;99.90
17859;DHT22;35426;30.698;104.050;2022-12-18T00:17:25;6.70;99.90
17859;DHT22;35426;30.698;104.050;2022-12-18T00:20:01;6.70;99.90
17859;DHT22;35426;30.698;104.050;2022-12-18T00:22:35;6.80;99.90
17859;DHT22;35426;30.698;104.050;2022-12-18T00:25:10;6.80;99.90
17859;DHT22;35426;30.698;104.050;2022-12-18T00:27:44;6.70;99.90
17859;DHT22;35426;30.698;104.050;2022-12-18T00:30:19;6.70;99.90
17859;DHT22;35426;30.698;104.050;2022-12-18T00:32:52;6.90;99.90
17859;DHT22;35426;30.698;104.050;2022-12-18T00:35:29;6.80;99.90
17859;DHT22;35426;30.698;104.050;2022-12-18T00:38:03;6.90;99.90
17859;DHT22;35426;30.698;104.050;2022-12-18T00:40:37;6.80;99.90
17859;DHT22;35426;30.698;104.050;2022-12-18T00:43:11;6.90;99.90
17859;DHT22;35426;30.698;104.050;2022-12-18T00:45:44;6.90;99.90
17859;DHT22;35426;30.698;104.050;2022-12-18T00:48:19;7.00;99.90
17859;DHT22;35426;30.698;104.050;2022-12-18T00:50:55;6.90;99.90
17859;DHT22;35426;30.698;104.050;2022-12-18T00:53:29;6.90;99.90
17859;DHT22;35426;30.698;104.050;2022-12-18T00:56:04;6.90;99.90
17859;DHT22;35426;30.698;104.050;2022-12-18T00:58:38;7.10;99.90
17859;DHT22;35426;30.698;104.050;2022-12-18T01:01:12;7.20;99.90
17859;DHT22;35426;30.698;104.050;2022-12-18T01:03:46;7.10;99.90
17859;DHT22;35426;30.698;104.050;2022-12-18T01:06:23;7.20;99.90
17859;DHT22;35426;30.698;104.050;2022-12-18T01:08:58;7.30;99.90
17859;DHT22;35426;30.698;104.050;2022-12-18T01:11:32;7.30;99.90
17859;DHT22;35426;30.698;104.050;2022-12-18T01:14:06;7.20;99.90
17859;DHT22;35426;30.698;104.050;2022-12-18T01:16:40;7.20;99.90
17859;DHT22;35426;30.698;104.050;2022-12-18T01:19:14;7.30;99.90
17859;DHT22;35426;30.698;104.050;2022-12-18T01:21:50;7.40;99.90
17859;DHT22;35426;30.698;104.050;2022-12-18T01:24:25;7.60;99.90
17859;DHT22;35426;30.698;104.050;2022-12-18T01:26:59;7.50;99.90
17859;DHT22;35426;30.698;104.050;2022-12-18T01:29:33;7.50;99.90
17859;DHT22;35426;30.698;104.050;2022-12-18T01:32:07;7.50;99.90
17859;DHT22;35426;30.698;104.050;2022-12-18T01:34:43;7.60;99.90
17859;DHT22;35426;30.698;104.050;2022-12-18T01:37:19;7.60;99.90
17859;DHT22;35426;30.698;104.050;2022-12-18T01:39:55;7.90;99.90
17859;DHT22;35426;30.698;104.050;2022-12-18T01:42:29;8.00;99.90
17859;DHT22;35426;30.698;104.050;2022-12-18T01:45:25;8.00;99.90
17859;DHT22;35426;30.698;104.050;2022-12-18T01:48:01;8.00;99.90
17859;DHT22;35426;30.698;104.050;2022-12-18T01:50:39;8.00;99.90
17859;DHT22;35426;30.698;104.050;2022-12-18T01:53:19;8.10;99.90
17859;DHT22;35426;30.698;104.050;2022-12-18T01:55:55;8.20;99.90
17859;DHT22;35426;30.698;104.050;2022-12-18T01:58:32;8.50;99.90
17859;DHT22;35426;30.698;104.050;2022-12-18T02:01:09;8.70;99.90
17859;DHT22;35426;30.698;104.050;2022-12-18T02:03:44;8.70;99.90
17859;DHT22;35426;30.698;104.050;2022-12-18T02:06:20;9.00;99.90
17859;DHT22;35426;30.698;104.050;2022-12-18T02:09:05;9.20;99.90
17859;DHT22;35426;30.698;104.050;2022-12-18T02:11:48;9.50;99.90
17859;DHT22;35426;30.698;104.050;2022-12-18T02:14:27;10.10;99.90
17859;DHT22;35426;30.698;104.050;2022-12-18T02:17:09;10.20;99.90
17859;DHT22;35426;30.698;104.050;2022-12-18T02:19:53;10.40;99.90
17859;DHT22;35426;30.698;104.050;2022-12-18T02:22:39;10.90;99.90
17859;DHT22;35426;30.698;104.050;2022-12-18T02:25:24;11.50;99.90
17859;DHT22;35426;30.698;104.050;2022-12-18T02:28:06;12.10;99.90
17859;DHT22;35426;30.698;104.050;2022-12-18T02:30:44;12.30;99.90
17859;DHT22;35426;30.698;104.050;2022-12-18T02:33:20;13.30;99.90
17859;DHT22;35426;30.698;104.050;2022-12-18T02:35:56;13.60;99.90
17859;DHT22;35426;30.698;104.050;2022-12-18T02:38:34;13.50;99.90
17859;DHT22;35426;30.698;104.050;2022-12-18T02:41:14;13.30;99.90
17859;DHT22;35426;30.698;104.050;2022-12-18T02:43:56;13.10;99.90
17859;DHT22;35426;30.698;104.050;2022-12-18T02:46:36;12.80;99.90
17859;DHT22;35426;30.698;104.050;2022-12-18T02:49:26;13.00;99.90
17859;DHT22;35426;30.698;104.050;2022-12-18T02:52:09;12.80;99.90
17859;DHT22;35426;30.698;104.050;2022-12-18T02:54:55;12.70;99.90
17859;DHT22;35426;30.698;104.050;2022-12-18T02:57:36;12.90;99.90
17859;DHT22;35426;30.698;104.050;2022-12-18T03:00:20;13.60;99.90
17859;DHT22;35426;30.698;104.050;2022-12-18T03:02:59;13.70;99.90
17859;DHT22;35426;30.698;104.050;2022-12-18T03:05:40;13.50;99.90
17859;DHT22;35426;30.698;104.050;2022-12-18T03:08:18;13.40;99.90
17859;DHT22;35426;30.698;104.050;2022-12-18T03:10:57;13.50;99.90
17859;DHT22;35426;30.698;104.050;2022-12-18T03:13:37;14.00;99.90
17859;DHT22;35426;30.698;104.050;2022-12-18T03:16:22;14.10;99.90
17859;DHT22;35426;30.698;104.050;2022-12-18T03:19:01;13.80;99.90
17859;DHT22;35426;30.698;104.050;2022-12-18T03:21:47;13.30;99.90
17859;DHT22;35426;30.698;104.050;2022-12-18T03:24:27;13.60;99.90
17859;DHT22;35426;30.698;104.050;2022-12-18T03:27:05;13.20;99.90
17859;DHT22;35426;30.698;104.050;2022-12-18T03:29:42;12.90;99.90
17859;DHT22;35426;30.698;104.050;2022-12-18T03:32:25;12.70;99.90
17859;DHT22;35426;30.698;104.050;2022-12-18T03:35:04;12.00;99.90
17859;DHT22;35426;30.698;104.050;2022-12-18T03:37:39;11.60;99.90
17859;DHT22;35426;30.698;104.050;2022-12-18T03:40:14;11.50;99.90
17859;DHT22;35426;30.698;104.050;2022-12-18T03:42:54;11.90;99.90
17859;DHT22;35426;30.698;104.050;2022-12-18T03:45:36;11.80;99.90
17859;DHT22;35426;30.698;104.050;2022-12-18T03:48:18;11.50;99.90
17859;DHT22;35426;30.698;104.050;2022-12-18T03:50:57;12.20;99.90
17859;DHT22;35426;30.698;104.050;2022-12-18T03:53:36;12.50;99.90
17859;DHT22;35426;30.698;104.050;2022-12-18T03:56:16;12.30;99.90
17859;DHT22;35426;30.698;104.050;2022-12-18T03:58:52;11.80;99.90
17859;DHT22;35426;30.698;104.050;2022-12-18T04:01:33;12.30;99.90
17859;DHT22;35426;30.698;104.050;2022-12-18T04:04:16;12.70;99.90
17859;DHT22;35426;30.698;104.050;2022-12-18T04:06:55;12.40;99.90
17859;DHT22;35426;30.698;104.050;2022-12-18T04:09:32;12.10;99.90
17859;DHT22;35426;30.698;104.050;2022-12-18T04:12:11;11.70;99.90
17859;DHT22;35426;30.698;104.050;2022-12-18T04:14:49;11.90;99.90
17859;DHT22;35426;30.698;104.050;2022-12-18T04:17:27;11.70;99.90
17859;DHT22;35426;30.698;104.050;2022-12-18T04:20:07;12.00;99.90
17859;DHT22;35426;30.698;104.050;2022-12-18T04:22:46;12.00;99.90
17859;DHT22;35426;30.698;104.050;2022-12-18T04:25:23;11.80;99.90
17859;DHT22;35426;30.698;104.050;2022-12-18T04:28:14;11.90;99.90
17859;DHT22;35426;30.698;104.050;2022-12-18T04:30:51;11.60;99.90
17859;DHT22;35426;30.698;104.050;2022-12-18T04:33:27;11.40;99.90
17859;DHT22;35426;30.698;104.050;2022-12-18T04:36:08;11.10;99.90
17859;DHT22;35426;30.698;104.050;2022-12-18T04:38:45;11.10;99.90
17859;DHT22;35426;30.698;104.050;2022-12-18T04:41:24;11.00;99.90
17859;DHT22;35426;30.698;104.050;2022-12-18T04:44:00;11.00;99.90
17859;DHT22;35426;30.698;104.050;2022-12-18T04:46:38;11.30;99.90
17859;DHT22;35426;30.698;104.050;2022-12-18T04:49:15;11.10;99.90
17859;DHT22;35426;30.698;104.050;2022-12-18T04:51:53;10.90;99.90
17859;DHT22;35426;30.698;104.050;2022-12-18T04:54:31;10.70;99.90
17859;DHT22;35426;30.698;104.050;2022-12-18T04:57:08;10.90;99.90
17859;DHT22;35426;30.698;104.050;2022-12-18T04:59:45;11.00;99.90
17859;DHT22;35426;30.698;104.050;2022-12-18T05:02:22;11.20;99.90
17859;DHT22;35426;30.698;104.050;2022-12-18T05:04:59;11.00;99.90
17859;DHT22;35426;30.698;104.050;2022-12-18T05:07:36;11.00;99.90
17859;DHT22;35426;30.698;104.050;2022-12-18T05:10:11;11.10;99.90
17859;DHT22;35426;30.698;104.050;2022-12-18T05:12:50;10.90;99.90
17859;DHT22;35426;30.698;104.050;2022-12-18T05:15:35;10.90;99.90
17859;DHT22;35426;30.698;104.050;2022-12-18T05:18:10;11.40;99.90
17859;DHT22;35426;30.698;104.050;2022-12-18T05:20:45;11.40;99.90
17859;DHT22;35426;30.698;104.050;2022-12-18T05:23:26;11.50;99.90
17859;DHT22;35426;30.698;104.050;2022-12-18T05:26:02;11.70;99.90
17859;DHT22;35426;30.698;104.050;2022-12-18T05:28:37;11.60;99.90
17859;DHT22;35426;30.698;104.050;2022-12-18T05:31:12;11.80;99.90
17859;DHT22;35426;30.698;104.050;2022-12-18T05:33:47;11.90;99.90
17859;DHT22;35426;30.698;104.050;2022-12-18T05:36:22;11.80;99.90
17859;DHT22;35426;30.698;104.050;2022-12-18T05:39:00;11.70;99.90
17859;DHT22;35426;30.698;104.050;2022-12-18T05:41:36;11.90;99.90
17859;DHT22;35426;30.698;104.050;2022-12-18T05:44:12;12.00;99.90
17859;DHT22;35426;30.698;104.050;2022-12-18T05:46:47;11.90;99.90
17859;DHT22;35426;30.698;104.050;2022-12-18T05:49:23;11.70;99.90
17859;DHT22;35426;30.698;104.050;2022-12-18T05:51:59;11.90;99.90
17859;DHT22;35426;30.698;104.050;2022-12-18T05:54:37;11.80;99.90
17859;DHT22;35426;30.698;104.050;2022-12-18T05:57:14;11.70;99.90
17859;DHT22;35426;30.698;104.050;2022-12-18T05:59:50;12.00;99.90
17859;DHT22;35426;30.698;104.050;2022-12-18T06:02:27;12.00;99.90
17859;DHT22;35426;30.698;104.050;2022-12-18T06:05:06;12.00;99.90
17859;DHT22;35426;30.698;104.050;2022-12-18T06:07:43;12.00;99.90
17859;DHT22;35426;30.698;104.050;2022-12-18T06:10:30;11.60;99.90
17859;DHT22;35426;30.698;104.050;2022-12-18T06:13:06;11.70;99.90
17859;DHT22;35426;30.698;104.050;2022-12-18T06:15:44;11.90;99.90
17859;DHT22;35426;30.698;104.050;2022-12-18T06:18:21;12.00;99.90
17859;DHT22;35426;30.698;104.050;2022-12-18T06:20:58;12.00;99.90
17859;DHT22;35426;30.698;104.050;2022-12-18T06:23:34;11.90;99.90
17859;DHT22;35426;30.698;104.050;2022-12-18T06:26:14;11.80;99.90
17859;DHT22;35426;30.698;104.050;2022-12-18T06:28:58;11.80;99.90
17859;DHT22;35426;30.698;104.050;2022-12-18T06:31:34;11.60;99.90
17859;DHT22;35426;30.698;104.050;2022-12-18T06:34:11;11.50;99.90
17859;DHT22;35426;30.698;104.050;2022-12-18T06:37:00;11.70;99.90
17859;DHT22;35426;30.698;104.050;2022-12-18T06:39:36;11.60;99.90
17859;DHT22;35426;30.698;104.050;2022-12-18T06:42:13;11.50;99.90
17859;DHT22;35426;30.698;104.050;2022-12-18T06:44:53;11.70;99.90
17859;DHT22;35426;30.698;104.050;2022-12-18T06:47:29;11.80;99.90
17859;DHT22;35426;30.698;104.050;2022-12-18T06:50:06;11.90;99.90
17859;DHT22;35426;30.698;104.050;2022-12-18T06:52:42;11.90;99.90
17859;DHT22;35426;30.698;104.050;2022-12-18T06:55:23;11.80;99.90
17859;DHT22;35426;30.698;104.050;2022-12-18T06:58:02;11.80;99.90
17859;DHT22;35426;30.698;104.050;2022-12-18T07:00:40;11.60;99.90
17859;DHT22;35426;30.698;104.050;2022-12-18T07:03:16;11.50;99.90
17859;DHT22;35426;30.698;104.050;2022-12-18T07:05:53;11.70;99.90
17859;DHT22;35426;30.698;104.050;2022-12-18T07:08:30;12.00;99.90
17859;DHT22;35426;30.698;104.050;2022-12-18T07:11:07;12.30;99.90
17859;DHT22;35426;30.698;104.050;2022-12-18T07:13:46;12.10;99.90
17859;DHT22;35426;30.698;104.050;2022-12-18T07:16:23;11.90;99.90
17859;DHT22;35426;30.698;104.050;2022-12-18T07:19:00;11.90;99.90
17859;DHT22;35426;30.698;104.050;2022-12-18T07:21:38;11.80;99.90
17859;DHT22;35426;30.698;104.050;2022-12-18T07:24:15;11.80;99.90
17859;DHT22;35426;30.698;104.050;2022-12-18T07:26:51;11.80;99.90
17859;DHT22;35426;30.698;104.050;2022-12-18T07:29:29;11.70;99.90
17859;DHT22;35426;30.698;104.050;2022-12-18T07:32:10;11.70;99.90
17859;DHT22;35426;30.698;104.050;2022-12-18T07:34:46;11.70;99.90
17859;DHT22;35426;30.698;104.050;2022-12-18T07:37:25;11.40;99.90
17859;DHT22;35426;30.698;104.050;2022-12-18T07:40:04;11.50;99.90
17859;DHT22;35426;30.698;104.050;2022-12-18T07:42:42;11.60;99.90
17859;DHT22;35426;30.698;104.050;2022-12-18T07:45:25;11.70;99.90
17859;DHT22;35426;30.698;104.050;2022-12-18T07:48:01;11.60;99.90
17859;DHT22;35426;30.698;104.050;2022-12-18T07:50:37;11.60;99.90
17859;DHT22;35426;30.698;104.050;2022-12-18T07:53:13;11.50;99.90
17859;DHT22;35426;30.698;104.050;2022-12-18T07:55:56;11.40;99.90
17859;DHT22;35426;30.698;104.050;2022-12-18T07:58:52;11.50;99.90
17859;DHT22;35426;30.698;104.050;2022-12-18T08:01:31;11.60;99.90
17859;DHT22;35426;30.698;104.050;2022-12-18T08:04:07;11.50;99.90
17859;DHT22;35426;30.698;104.050;2022-12-18T08:06:44;11.50;99.90
17859;DHT22;35426;30.698;104.050;2022-12-18T08:09:21;11.40;99.90
17859;DHT22;35426;30.698;104.050;2022-12-18T08:11:57;11.60;99.90
17859;DHT22;35426;30.698;104.050;2022-12-18T08:14:33;11.60;99.90
17859;DHT22;35426;30.698;104.050;2022-12-18T08:17:11;11.60;99.90
17859;DHT22;35426;30.698;104.050;2022-12-18T08:19:48;11.50;99.90
17859;DHT22;35426;30.698;104.050;2022-12-18T08:22:28;11.30;99.90
17859;DHT22;35426;30.698;104.050;2022-12-18T08:25:05;11.20;99.90
17859;DHT22;35426;30.698;104.050;2022-12-18T08:27:42;11.40;99.90
17859;DHT22;35426;30.698;104.050;2022-12-18T08:30:18;11.30;99.90
17859;DHT22;35426;30.698;104.050;2022-12-18T08:32:59;11.30;99.90
17859;DHT22;35426;30.698;104.050;2022-12-18T08:35:37;11.30;99.90
17859;DHT22;35426;30.698;104.050;2022-12-18T08:38:15;11.30;99.90
17859;DHT22;35426;30.698;104.050;2022-12-18T08:40:58;11.30;99.90
17859;DHT22;35426;30.698;104.050;2022-12-18T08:43:38;11.30;99.90
17859;DHT22;35426;30.698;104.050;2022-12-18T08:46:34;11.40;99.90
17859;DHT22;35426;30.698;104.050;2022-12-18T08:49:14;11.30;99.90
17859;DHT22;35426;30.698;104.050;2022-12-18T08:51:56;11.30;99.90
17859;DHT22;35426;30.698;104.050;2022-12-18T08:54:32;11.40;99.90
17859;DHT22;35426;30.698;104.050;2022-12-18T08:57:09;11.50;99.90
17859;DHT22;35426;30.698;104.050;2022-12-18T08:59:45;11.50;99.90
17859;DHT22;35426;30.698;104.050;2022-12-18T09:02:21;11.40;99.90
17859;DHT22;35426;30.698;104.050;2022-12-18T09:04:59;11.30;99.90
17859;DHT22;35426;30.698;104.050;2022-12-18T09:07:35;11.40;99.90
17859;DHT22;35426;30.698;104.050;2022-12-18T09:10:10;11.40;99.90
17859;DHT22;35426;30.698;104.050;2022-12-18T09:12:46;11.30;99.90
17859;DHT22;35426;30.698;104.050;2022-12-18T09:15:22;11.30;99.90
17859;DHT22;35426;30.698;104.050;2022-12-18T09:17:58;11.20;99.90
17859;DHT22;35426;30.698;104.050;2022-12-18T09:20:37;11.20;99.90
17859;DHT22;35426;30.698;104.050;2022-12-18T09:23:13;11.10;99.90
17859;DHT22;35426;30.698;104.050;2022-12-18T09:25:49;11.10;99.90
17859;DHT22;35426;30.698;104.050;2022-12-18T09:28:29;11.00;99.90
17859;DHT22;35426;30.698;104.050;2022-12-18T09:31:09;11.00;99.90
17859;DHT22;35426;30.698;104.050;2022-12-18T09:33:46;10.90;99.90
17859;DHT22;35426;30.698;104.050;2022-12-18T09:36:24;10.80;99.90
17859;DHT22;35426;30.698;104.050;2022-12-18T09:39:00;10.70;99.90
17859;DHT22;35426;30.698;104.050;2022-12-18T09:41:46;10.70;99.90
17859;DHT22;35426;30.698;104.050;2022-12-18T09:44:29;10.70;99.90
17859;DHT22;35426;30.698;104.050;2022-12-18T09:47:17;10.50;99.90
17859;DHT22;35426;30.698;104.050;2022-12-18T09:49:56;10.60;99.90
17859;DHT22;35426;30.698;104.050;2022-12-18T09:52:37;10.60;99.90
17859;DHT22;35426;30.698;104.050;2022-12-18T09:55:22;10.50;99.90
17859;DHT22;35426;30.698;104.050;2022-12-18T09:58:11;10.40;99.90
17859;DHT22;35426;30.698;104.050;2022-12-18T10:00:52;10.40;99.90
17859;DHT22;35426;30.698;104.050;2022-12-18T10:03:29;10.40;99.90
17859;DHT22;35426;30.698;104.050;2022-12-18T10:06:10;10.40;99.90
17859;DHT22;35426;30.698;104.050;2022-12-18T10:08:57;10.40;99.90
17859;DHT22;35426;30.698;104.050;2022-12-18T10:11:56;10.30;99.90
17859;DHT22;35426;30.698;104.050;2022-12-18T10:14:41;10.40;99.90
17859;DHT22;35426;30.698;104.050;2022-12-18T10:17:24;10.40;99.90
17859;DHT22;35426;30.698;104.050;2022-12-18T10:20:05;10.40;99.90
17859;DHT22;35426;30.698;104.050;2022-12-18T10:22:52;10.40;99.90
17859;DHT22;35426;30.698;104.050;2022-12-18T10:25:36;10.40;99.90
17859;DHT22;35426;30.698;104.050;2022-12-18T10:28:20;10.40;99.90
17859;DHT22;35426;30.698;104.050;2022-12-18T10:30:56;10.30;99.90
17859;DHT22;35426;30.698;104.050;2022-12-18T10:33:33;10.30;99.90
17859;DHT22;35426;30.698;104.050;2022-12-18T10:36:10;10.30;99.90
17859;DHT22;35426;30.698;104.050;2022-12-18T10:38:47;10.20;99.90
17859;DHT22;35426;30.698;104.050;2022-12-18T10:41:28;10.30;99.90
17859;DHT22;35426;30.698;104.050;2022-12-18T10:44:17;10.40;99.90
17859;DHT22;35426;30.698;104.050;2022-12-18T10:47:04;10.40;99.90
17859;DHT22;35426;30.698;104.050;2022-12-18T10:49:50;10.20;99.90
17859;DHT22;35426;30.698;104.050;2022-12-18T10:52:29;10.30;99.90
17859;DHT22;35426;30.698;104.050;2022-12-18T10:55:18;10.40;99.90
17859;DHT22;35426;30.698;104.050;2022-12-18T10:58:18;10.20;99.90
17859;DHT22;35426;30.698;104.050;2022-12-18T11:01:09;10.20;99.90
17859;DHT22;35426;30.698;104.050;2022-12-18T11:03:58;10.20;99.90
17859;DHT22;35426;30.698;104.050;2022-12-18T11:06:34;10.30;99.90
17859;DHT22;35426;30.698;104.050;2022-12-18T11:09:29;10.20;99.90
17859;DHT22;35426;30.698;104.050;2022-12-18T11:12:19;10.20;99.90
17859;DHT22;35426;30.698;104.050;2022-12-18T11:15:01;10.30;99.90
17859;DHT22;35426;30.698;104.050;2022-12-18T11:17:38;10.30;99.90
17859;DHT22;35426;30.698;104.050;2022-12-18T11:20:29;10.20;99.90
17859;DHT22;35426;30.698;104.050;2022-12-18T11:23:13;10.20;99.90
17859;DHT22;35426;30.698;104.050;2022-12-18T11:26:00;10.20;99.90
17859;DHT22;35426;30.698;104.050;2022-12-18T11:28:39;10.20;99.90
17859;DHT22;35426;30.698;104.050;2022-12-18T11:31:26;10.20;99.90
17859;DHT22;35426;30.698;104.050;2022-12-18T11:34:08;10.20;99.90
17859;DHT22;35426;30.698;104.050;2022-12-18T11:37:02;10.10;99.90
17859;DHT22;35426;30.698;104.050;2022-12-18T11:39:41;10.10;99.90
17859;DHT22;35426;30.698;104.050;2022-12-18T11:42:23;10.00;99.90
17859;DHT22;35426;30.698;104.050;2022-12-18T11:45:03;10.00;99.90
17859;DHT22;35426;30.698;104.050;2022-12-18T11:47:54;9.90;99.90
17859;DHT22;35426;30.698;104.050;2022-12-18T11:50:44;9.90;99.90
17859;DHT22;35426;30.698;104.050;2022-12-18T11:53:24;9.90;99.90
17859;DHT22;35426;30.698;104.050;2022-12-18T11:56:15;9.80;99.90
17859;DHT22;35426;30.698;104.050;2022-12-18T11:59:05;9.80;99.90
17859;DHT22;35426;30.698;104.050;2022-12-18T12:01:50;9.80;99.90
17859;DHT22;35426;30.698;104.050;2022-12-18T12:04:56;9.70;99.90
17859;DHT22;35426;30.698;104.050;2022-12-18T12:07:42;9.70;99.90
17859;DHT22;35426;30.698;104.050;2022-12-18T12:10:36;9.70;99.90
17859;DHT22;35426;30.698;104.050;2022-12-18T12:13:26;9.70;99.90
17859;DHT22;35426;30.698;104.050;2022-12-18T12:16:17;9.60;99.90
17859;DHT22;35426;30.698;104.050;2022-12-18T12:19:13;9.60;99.90
17859;DHT22;35426;30.698;104.050;2022-12-18T12:22:03;9.50;99.90
17859;DHT22;35426;30.698;104.050;2022-12-18T12:24:51;9.50;99.90
17859;DHT22;35426;30.698;104.050;2022-12-18T12:27:39;9.60;99.90
17859;DHT22;35426;30.698;104.050;2022-12-18T12:30:22;9.60;99.90
17859;DHT22;35426;30.698;104.050;2022-12-18T12:33:11;9.60;99.90
17859;DHT22;35426;30.698;104.050;2022-12-18T12:35:57;9.60;99.90
17859;DHT22;35426;30.698;104.050;2022-12-18T12:38:41;9.60;99.90
17859;DHT22;35426;30.698;104.050;2022-12-18T12:41:23;9.50;99.90
17859;DHT22;35426;30.698;104.050;2022-12-18T12:44:19;9.50;99.90
17859;DHT22;35426;30.698;104.050;2022-12-18T12:47:00;9.50;99.90
17859;DHT22;35426;30.698;104.050;2022-12-18T12:49:39;9.50;99.90
17859;DHT22;35426;30.698;104.050;2022-12-18T12:52:28;9.60;99.90
17859;DHT22;35426;30.698;104.050;2022-12-18T12:55:17;9.60;99.90
17859;DHT22;35426;30.698;104.050;2022-12-18T12:58:02;9.60;99.90
17859;DHT22;35426;30.698;104.050;2022-12-18T13:00:46;9.60;99.90
17859;DHT22;35426;30.698;104.050;2022-12-18T13:03:39;9.70;99.90
17859;DHT22;35426;30.698;104.050;2022-12-18T13:06:29;9.70;99.90
17859;DHT22;35426;30.698;104.050;2022-12-18T13:09:14;9.60;99.90
17859;DHT22;35426;30.698;104.050;2022-12-18T13:11:54;9.60;99.90
17859;DHT22;35426;30.698;104.050;2022-12-18T13:14:55;9.70;99.90
17859;DHT22;35426;30.698;104.050;2022-12-18T13:17:48;9.70;99.90
17859;DHT22;35426;30.698;104.050;2022-12-18T13:20:34;9.60;99.90
17859;DHT22;35426;30.698;104.050;2022-12-18T13:23:31;9.50;99.90
17859;DHT22;35426;30.698;104.050;2022-12-18T13:26:33;9.50;99.90
17859;DHT22;35426;30.698;104.050;2022-12-18T13:29:12;9.50;99.90
17859;DHT22;35426;30.698;104.050;2022-12-18T13:32:21;9.50;99.90
17859;DHT22;35426;30.698;104.050;2022-12-18T13:38:23;9.40;99.90
17859;DHT22;35426;30.698;104.050;2022-12-18T13:41:14;9.40;99.90
17859;DHT22;35426;30.698;104.050;2022-12-18T13:44:21;9.40;99.90
17859;DHT22;35426;30.698;104.050;2022-12-18T13:47:00;9.30;99.90
17859;DHT22;35426;30.698;104.050;2022-12-18T13:49:43;9.30;99.90
17859;DHT22;35426;30.698;104.050;2022-12-18T13:52:22;9.30;99.90
17859;DHT22;35426;30.698;104.050;2022-12-18T13:55:04;9.20;99.90
17859;DHT22;35426;30.698;104.050;2022-12-18T13:57:41;9.30;99.90
17859;DHT22;35426;30.698;104.050;2022-12-18T14:00:29;9.20;99.90
17859;DHT22;35426;30.698;104.050;2022-12-18T14:03:20;9.20;99.90
17859;DHT22;35426;30.698;104.050;2022-12-18T14:06:01;9.10;99.90
17859;DHT22;35426;30.698;104.050;2022-12-18T14:08:40;9.20;99.90
17859;DHT22;35426;30.698;104.050;2022-12-18T14:11:22;9.10;99.90
17859;DHT22;35426;30.698;104.050;2022-12-18T14:13:59;9.10;99.90
17859;DHT22;35426;30.698;104.050;2022-12-18T14:16:42;9.20;99.90
17859;DHT22;35426;30.698;104.050;2022-12-18T14:19:20;9.20;99.90
17859;DHT22;35426;30.698;104.050;2022-12-18T14:21:56;9.10;99.90
17859;DHT22;35426;30.698;104.050;2022-12-18T14:24:34;9.00;99.90
17859;DHT22;35426;30.698;104.050;2022-12-18T14:27:22;9.10;99.90
17859;DHT22;35426;30.698;104.050;2022-12-18T14:30:00;9.10;99.90
17859;DHT22;35426;30.698;104.050;2022-12-18T14:32:39;9.10;99.90
17859;DHT22;35426;30.698;104.050;2022-12-18T14:35:17;9.10;99.90
17859;DHT22;35426;30.698;104.050;2022-12-18T14:38:00;9.10;99.90
17859;DHT22;35426;30.698;104.050;2022-12-18T14:40:43;9.00;99.90
17859;DHT22;35426;30.698;104.050;2022-12-18T14:43:22;9.00;99.90
17859;DHT22;35426;30.698;104.050;2022-12-18T14:46:01;9.00;99.90
17859;DHT22;35426;30.698;104.050;2022-12-18T14:48:41;9.00;99.90
17859;DHT22;35426;30.698;104.050;2022-12-18T14:51:20;8.90;99.90
17859;DHT22;35426;30.698;104.050;2022-12-18T14:53:58;8.90;99.90
17859;DHT22;35426;30.698;104.050;2022-12-18T14:56:37;8.80;99.90
17859;DHT22;35426;30.698;104.050;2022-12-18T14:59:21;8.80;99.90
17859;DHT22;35426;30.698;104.050;2022-12-18T15:02:17;8.80;99.90
17859;DHT22;35426;30.698;104.050;2022-12-18T15:05:17;8.70;99.90
17859;DHT22;35426;30.698;104.050;2022-12-18T15:07:57;8.80;99.90
17859;DHT22;35426;30.698;104.050;2022-12-18T15:10:35;8.70;99.90
17859;DHT22;35426;30.698;104.050;2022-12-18T15:13:24;8.60;99.90
17859;DHT22;35426;30.698;104.050;2022-12-18T15:16:03;8.70;99.90
17859;DHT22;35426;30.698;104.050;2022-12-18T15:18:44;8.60;99.90
17859;DHT22;35426;30.698;104.050;2022-12-18T15:21:25;8.70;99.90
17859;DHT22;35426;30.698;104.050;2022-12-18T15:24:04;8.70;99.90
17859;DHT22;35426;30.698;104.050;2022-12-18T15:26:41;8.80;99.90
17859;DHT22;35426;30.698;104.050;2022-12-18T15:29:20;8.70;99.90
17859;DHT22;35426;30.698;104.050;2022-12-18T15:32:05;8.70;99.90
17859;DHT22;35426;30.698;104.050;2022-12-18T15:34:53;8.60;99.90
17859;DHT22;35426;30.698;104.050;2022-12-18T15:37:40;8.40;99.90
17859;DHT22;35426;30.698;104.050;2022-12-18T15:40:18;8.40;99.90
17859;DHT22;35426;30.698;104.050;2022-12-18T15:42:56;8.40;99.90
17859;DHT22;35426;30.698;104.050;2022-12-18T15:45:48;8.40;99.90
17859;DHT22;35426;30.698;104.050;2022-12-18T15:48:25;8.40;99.90
17859;DHT22;35426;30.698;104.050;2022-12-18T15:51:01;8.40;99.90
17859;DHT22;35426;30.698;104.050;2022-12-18T15:53:40;8.40;99.90
17859;DHT22;35426;30.698;104.050;2022-12-18T15:56:18;8.50;99.90
17859;DHT22;35426;30.698;104.050;2022-12-18T15:59:22;8.50;99.90
17859;DHT22;35426;30.698;104.050;2022-12-18T16:01:58;8.50;99.90
17859;DHT22;35426;30.698;104.050;2022-12-18T16:04:35;8.50;99.90
17859;DHT22;35426;30.698;104.050;2022-12-18T16:07:14;8.50;99.90
17859;DHT22;35426;30.698;104.050;2022-12-18T16:09:56;8.40;99.90
17859;DHT22;35426;30.698;104.050;2022-12-18T16:12:32;8.30;99.90
17859;DHT22;35426;30.698;104.050;2022-12-18T16:15:10;8.40;99.90
17859;DHT22;35426;30.698;104.050;2022-12-18T16:17:53;8.30;99.90
17859;DHT22;35426;30.698;104.050;2022-12-18T16:20:30;8.30;99.90
17859;DHT22;35426;30.698;104.050;2022-12-18T16:23:06;8.40;99.90
17859;DHT22;35426;30.698;104.050;2022-12-18T16:25:44;8.40;99.90
17859;DHT22;35426;30.698;104.050;2022-12-18T16:28:20;8.40;99.90
17859;DHT22;35426;30.698;104.050;2022-12-18T16:30:56;8.40;99.90
17859;DHT22;35426;30.698;104.050;2022-12-18T16:33:31;8.40;99.90